sensor_id;sensor_type;location;lat;lon;timestamp;pressure;altitude;pressure_sealevel;temperature
65738;BMP280;52478;51.844;6.582;2023-11-18T00:00:26;102131.13;;;21.60
65738;BMP280;52478;51.844;6.582;2023-11-18T00:02:52;102122.78;;;21.60
65738;BMP280;52478;51.844;6.582;2023-11-18T00:05:20;102130.34;;;21.60
65738;BMP280;52478;51.844;6.582;2023-11-18T00:07:49;102124.03;;;21.59
65738;BMP280;52478;51.844;6.582;2023-11-18T00:10:15;102117.91;;;21.55
65738;BMP280;52478;51.844;6.582;2023-11-18T00:12:42;102123.75;;;21.57
65738;BMP280;52478;51.844;6.582;2023-11-18T00:15:09;102118.97;;;21.58
65738;BMP280;52478;51.844;6.582;2023-11-18T00:17:36;102123.75;;;21.57
65738;BMP280;52478;51.844;6.582;2023-11-18T00:20:04;102120.97;;;21.57
65738;BMP280;52478;51.844;6.582;2023-11-18T00:22:36;102121.75;;;21.58
65738;BMP280;52478;51.844;6.582;2023-11-18T00:25:02;102114.66;;;21.57
65738;BMP280;52478;51.844;6.582;2023-11-18T00:27:30;102113.88;;;21.56
65738;BMP280;52478;51.844;6.582;2023-11-18T00:29:57;102113.88;;;21.56
65738;BMP280;52478;51.844;6.582;2023-11-18T00:32:23;102118.69;;;21.56
65738;BMP280;52478;51.844;6.582;2023-11-18T00:34:50;102112.34;;;21.55
65738;BMP280;52478;51.844;6.582;2023-11-18T00:37:16;102105.75;;;21.53
65738;BMP280;52478;51.844;6.582;2023-11-18T00:39:44;102100.66;;;21.51
65738;BMP280;52478;51.844;6.582;2023-11-18T00:42:11;102104.22;;;21.52
65738;BMP280;52478;51.844;6.582;2023-11-18T00:44:37;102099.41;;;21.52
65738;BMP280;52478;51.844;6.582;2023-11-18T00:47:04;102101.44;;;21.52
65738;BMP280;52478;51.844;6.582;2023-11-18T00:49:30;102107.75;;;21.52
65738;BMP280;52478;51.844;6.582;2023-11-18T00:51:59;102109.00;;;21.51
65738;BMP280;52478;51.844;6.582;2023-11-18T00:54:25;102106.22;;;21.51
65738;BMP280;52478;51.844;6.582;2023-11-18T00:56:53;102113.09;;;21.50
65738;BMP280;52478;51.844;6.582;2023-11-18T00:59:20;102116.66;;;21.51
65738;BMP280;52478;51.844;6.582;2023-11-18T01:01:46;102113.09;;;21.50
65738;BMP280;52478;51.844;6.582;2023-11-18T01:04:14;102122.69;;;21.49
65738;BMP280;52478;51.844;6.582;2023-11-18T01:06:42;102122.69;;;21.49
65738;BMP280;52478;51.844;6.582;2023-11-18T01:09:08;102122.69;;;21.49
65738;BMP280;52478;51.844;6.582;2023-11-18T01:11:35;102129.50;;;21.48
65738;BMP280;52478;51.844;6.582;2023-11-18T01:14:03;102128.75;;;21.48
65738;BMP280;52478;51.844;6.582;2023-11-18T01:16:30;102134.31;;;21.48
65738;BMP280;52478;51.844;6.582;2023-11-18T01:18:56;102136.34;;;21.47
65738;BMP280;52478;51.844;6.582;2023-11-18T01:21:23;102137.63;;;21.46
65738;BMP280;52478;51.844;6.582;2023-11-18T01:23:49;102136.09;;;21.45
65738;BMP280;52478;51.844;6.582;2023-11-18T01:26:16;102141.66;;;21.45
65738;BMP280;52478;51.844;6.582;2023-11-18T01:28:42;102136.84;;;21.46
65738;BMP280;52478;51.844;6.582;2023-11-18T01:31:11;102123.53;;;21.30
65738;BMP280;52478;51.844;6.582;2023-11-18T01:33:39;102145.69;;;21.44
65738;BMP280;52478;51.844;6.582;2023-11-18T01:36:07;102142.13;;;21.44
65738;BMP280;52478;51.844;6.582;2023-11-18T01:38:34;102140.13;;;21.44
65738;BMP280;52478;51.844;6.582;2023-11-18T01:41:01;102133.03;;;21.43
65738;BMP280;52478;51.844;6.582;2023-11-18T01:43:28;102140.13;;;21.44
65738;BMP280;52478;51.844;6.582;2023-11-18T01:45:57;102132.28;;;21.43
65738;BMP280;52478;51.844;6.582;2023-11-18T01:48:25;102143.44;;;21.43
65738;BMP280;52478;51.844;6.582;2023-11-18T01:50:52;102153.78;;;21.42
65738;BMP280;52478;51.844;6.582;2023-11-18T01:53:18;102148.22;;;21.42
65738;BMP280;52478;51.844;6.582;2023-11-18T01:55:45;102152.25;;;21.41
65738;BMP280;52478;51.844;6.582;2023-11-18T01:58:12;102157.06;;;21.41
65738;BMP280;52478;51.844;6.582;2023-11-18T02:00:45;102142.66;;;21.42
65738;BMP280;52478;51.844;6.582;2023-11-18T02:03:11;102135.28;;;21.39
65738;BMP280;52478;51.844;6.582;2023-11-18T02:05:39;102137.53;;;21.41
65738;BMP280;52478;51.844;6.582;2023-11-18T02:08:08;102134.53;;;21.39
65738;BMP280;52478;51.844;6.582;2023-11-18T02:10:37;102136.53;;;21.38
65738;BMP280;52478;51.844;6.582;2023-11-18T02:13:13;102130.94;;;21.38
65738;BMP280;52478;51.844;6.582;2023-11-18T02:15:45;102123.84;;;21.37
65738;BMP280;52478;51.844;6.582;2023-11-18T02:18:12;102118.28;;;21.37
65738;BMP280;52478;51.844;6.582;2023-11-18T02:20:41;102117.50;;;21.37
65738;BMP280;52478;51.844;6.582;2023-11-18T02:23:08;102109.16;;;21.37
65738;BMP280;52478;51.844;6.582;2023-11-18T02:25:43;102111.94;;;21.37
65738;BMP280;52478;51.844;6.582;2023-11-18T02:28:10;102123.84;;;21.37
65738;BMP280;52478;51.844;6.582;2023-11-18T02:30:36;102122.31;;;21.36
65738;BMP280;52478;51.844;6.582;2023-11-18T02:33:07;102119.53;;;21.36
65738;BMP280;52478;51.844;6.582;2023-11-18T02:35:46;102122.31;;;21.36
65738;BMP280;52478;51.844;6.582;2023-11-18T02:38:16;102129.19;;;21.35
65738;BMP280;52478;51.844;6.582;2023-11-18T02:40:46;102129.19;;;21.35
65738;BMP280;52478;51.844;6.582;2023-11-18T02:43:14;102134.75;;;21.35
65738;BMP280;52478;51.844;6.582;2023-11-18T02:45:42;102133.19;;;21.34
65738;BMP280;52478;51.844;6.582;2023-11-18T02:48:09;102130.41;;;21.34
65738;BMP280;52478;51.844;6.582;2023-11-18T02:50:35;102129.66;;;21.34
65738;BMP280;52478;51.844;6.582;2023-11-18T02:53:03;102122.03;;;21.34
65738;BMP280;52478;51.844;6.582;2023-11-18T02:55:30;102120.53;;;21.33
65738;BMP280;52478;51.844;6.582;2023-11-18T02:57:57;102113.41;;;21.32
65738;BMP280;52478;51.844;6.582;2023-11-18T03:00:24;102117.72;;;21.33
65738;BMP280;52478;51.844;6.582;2023-11-18T03:02:51;102119.00;;;21.32
65738;BMP280;52478;51.844;6.582;2023-11-18T03:05:18;102109.13;;;21.31
65738;BMP280;52478;51.844;6.582;2023-11-18T03:07:44;102107.59;;;21.30
65738;BMP280;52478;51.844;6.582;2023-11-18T03:10:15;102102.78;;;21.31
65738;BMP280;52478;51.844;6.582;2023-11-18T03:12:46;102104.81;;;21.30
65738;BMP280;52478;51.844;6.582;2023-11-18T03:15:14;102108.34;;;21.31
65738;BMP280;52478;51.844;6.582;2023-11-18T03:17:43;102107.59;;;21.30
65738;BMP280;52478;51.844;6.582;2023-11-18T03:20:10;102093.69;;;21.30
65738;BMP280;52478;51.844;6.582;2023-11-18T03:22:39;102086.53;;;21.29
65738;BMP280;52478;51.844;6.582;2023-11-18T03:25:07;102084.53;;;21.30
65738;BMP280;52478;51.844;6.582;2023-11-18T03:27:34;102077.44;;;21.29
65738;BMP280;52478;51.844;6.582;2023-11-18T03:30:00;102083.00;;;21.29
65738;BMP280;52478;51.844;6.582;2023-11-18T03:32:28;102076.97;;;21.30
65738;BMP280;52478;51.844;6.582;2023-11-18T03:34:56;102076.66;;;21.28
65738;BMP280;52478;51.844;6.582;2023-11-18T03:37:24;102082.22;;;21.28
65738;BMP280;52478;51.844;6.582;2023-11-18T03:39:51;102079.44;;;21.28
65738;BMP280;52478;51.844;6.582;2023-11-18T03:42:18;102083.00;;;21.29
65738;BMP280;52478;51.844;6.582;2023-11-18T03:44:44;102078.91;;;21.24
65738;BMP280;52478;51.844;6.582;2023-11-18T03:47:12;102087.06;;;21.28
65738;BMP280;52478;51.844;6.582;2023-11-18T03:49:40;102090.34;;;21.26
65738;BMP280;52478;51.844;6.582;2023-11-18T03:52:07;102093.88;;;21.27
65738;BMP280;52478;51.844;6.582;2023-11-18T03:54:33;102093.13;;;21.26
65738;BMP280;52478;51.844;6.582;2023-11-18T03:57:00;102095.91;;;21.26
65738;BMP280;52478;51.844;6.582;2023-11-18T03:59:26;102101.50;;;21.26
65738;BMP280;52478;51.844;6.582;2023-11-18T04:01:53;102091.56;;;21.25
65738;BMP280;52478;51.844;6.582;2023-11-18T04:04:19;102095.13;;;21.26
65738;BMP280;52478;51.844;6.582;2023-11-18T04:06:47;102093.59;;;21.25
65738;BMP280;52478;51.844;6.582;2023-11-18T04:09:14;102092.34;;;21.26
65738;BMP280;52478;51.844;6.582;2023-11-18T04:11:41;102081.69;;;21.24
65738;BMP280;52478;51.844;6.582;2023-11-18T04:14:10;102083.22;;;21.25
65738;BMP280;52478;51.844;6.582;2023-11-18T04:16:37;102076.13;;;21.24
65738;BMP280;52478;51.844;6.582;2023-11-18T04:19:04;102066.25;;;21.23
65738;BMP280;52478;51.844;6.582;2023-11-18T04:21:30;102066.25;;;21.23
65738;BMP280;52478;51.844;6.582;2023-11-18T04:23:58;102055.13;;;21.23
65738;BMP280;52478;51.844;6.582;2023-11-18T04:26:25;102060.69;;;21.23
65738;BMP280;52478;51.844;6.582;2023-11-18T04:28:51;102040.91;;;21.22
65738;BMP280;52478;51.844;6.582;2023-11-18T04:31:18;102038.88;;;21.22
65738;BMP280;52478;51.844;6.582;2023-11-18T04:33:44;102019.38;;;21.22
65738;BMP280;52478;51.844;6.582;2023-11-18T04:36:11;102027.00;;;21.22
65738;BMP280;52478;51.844;6.582;2023-11-18T04:38:38;102023.44;;;21.21
65738;BMP280;52478;51.844;6.582;2023-11-18T04:41:06;102024.72;;;21.20
65738;BMP280;52478;51.844;6.582;2023-11-18T04:43:33;102028.22;;;21.20
65738;BMP280;52478;51.844;6.582;2023-11-18T04:45:59;102026.72;;;21.20
65738;BMP280;52478;51.844;6.582;2023-11-18T04:48:26;102013.56;;;21.20
65738;BMP280;52478;51.844;6.582;2023-11-18T04:50:53;102010.00;;;21.20
65738;BMP280;52478;51.844;6.582;2023-11-18T04:53:19;101998.88;;;21.20
65738;BMP280;52478;51.844;6.582;2023-11-18T04:55:46;101997.34;;;21.19
65738;BMP280;52478;51.844;6.582;2023-11-18T04:58:14;101998.88;;;21.20
65738;BMP280;52478;51.844;6.582;2023-11-18T05:00:41;101994.56;;;21.19
65738;BMP280;52478;51.844;6.582;2023-11-18T05:03:07;101983.41;;;21.19
65738;BMP280;52478;51.844;6.582;2023-11-18T05:05:35;101988.22;;;21.18
65738;BMP280;52478;51.844;6.582;2023-11-18T05:08:03;101986.69;;;21.17
65738;BMP280;52478;51.844;6.582;2023-11-18T05:10:31;101974.28;;;21.18
65738;BMP280;52478;51.844;6.582;2023-11-18T05:12:58;101979.13;;;21.18
65738;BMP280;52478;51.844;6.582;2023-11-18T05:15:26;101973.28;;;21.16
65738;BMP280;52478;51.844;6.582;2023-11-18T05:17:54;101973.53;;;21.18
65738;BMP280;52478;51.844;6.582;2023-11-18T05:20:21;101969.19;;;21.17
65738;BMP280;52478;51.844;6.582;2023-11-18T05:22:48;101966.41;;;21.17
65738;BMP280;52478;51.844;6.582;2023-11-18T05:25:14;101964.91;;;21.16
65738;BMP280;52478;51.844;6.582;2023-11-18T05:27:41;101974.75;;;21.17
65738;BMP280;52478;51.844;6.582;2023-11-18T05:30:09;101980.34;;;21.17
65738;BMP280;52478;51.844;6.582;2023-11-18T05:32:37;101978.84;;;21.16
65738;BMP280;52478;51.844;6.582;2023-11-18T05:35:05;101982.38;;;21.16
65738;BMP280;52478;51.844;6.582;2023-11-18T05:37:32;101978.84;;;21.16
65738;BMP280;52478;51.844;6.582;2023-11-18T05:40:03;101984.41;;;21.16
65738;BMP280;52478;51.844;6.582;2023-11-18T05:42:32;101987.19;;;21.16
65738;BMP280;52478;51.844;6.582;2023-11-18T05:45:01;101991.25;;;21.15
65738;BMP280;52478;51.844;6.582;2023-11-18T05:47:27;102002.38;;;21.15
65738;BMP280;52478;51.844;6.582;2023-11-18T05:49:55;101978.09;;;21.15
65738;BMP280;52478;51.844;6.582;2023-11-18T05:52:22;101968.97;;;21.15
65738;BMP280;52478;51.844;6.582;2023-11-18T05:54:49;101959.81;;;21.14
65738;BMP280;52478;51.844;6.582;2023-11-18T05:57:16;101959.06;;;21.14
65738;BMP280;52478;51.844;6.582;2023-11-18T05:59:42;101960.34;;;21.13
65738;BMP280;52478;51.844;6.582;2023-11-18T06:02:09;101963.13;;;21.13
65738;BMP280;52478;51.844;6.582;2023-11-18T06:04:38;101963.13;;;21.13
65738;BMP280;52478;51.844;6.582;2023-11-18T06:07:06;101963.13;;;21.13
65738;BMP280;52478;51.844;6.582;2023-11-18T06:09:33;101956.03;;;21.12
65738;BMP280;52478;51.844;6.582;2023-11-18T06:12:00;101949.69;;;21.11
65738;BMP280;52478;51.844;6.582;2023-11-18T06:14:27;101944.88;;;21.12
65738;BMP280;52478;51.844;6.582;2023-11-18T06:16:53;101937.78;;;21.11
65738;BMP280;52478;51.844;6.582;2023-11-18T06:19:20;101919.56;;;21.10
65738;BMP280;52478;51.844;6.582;2023-11-18T06:21:47;101928.19;;;21.12
65738;BMP280;52478;51.844;6.582;2023-11-18T06:24:15;101937.78;;;21.11
65738;BMP280;52478;51.844;6.582;2023-11-18T06:26:44;101936.25;;;21.10
65738;BMP280;52478;51.844;6.582;2023-11-18T06:29:12;101933.75;;;21.12
65738;BMP280;52478;51.844;6.582;2023-11-18T06:31:39;101937.03;;;21.10
65738;BMP280;52478;51.844;6.582;2023-11-18T06:34:06;101930.69;;;21.10
65738;BMP280;52478;51.844;6.582;2023-11-18T06:36:32;101943.09;;;21.09
65738;BMP280;52478;51.844;6.582;2023-11-18T06:38:59;101929.16;;;21.09
65738;BMP280;52478;51.844;6.582;2023-11-18T06:41:27;101933.97;;;21.08
65738;BMP280;52478;51.844;6.582;2023-11-18T06:43:59;101924.34;;;21.09
65738;BMP280;52478;51.844;6.582;2023-11-18T06:46:34;101935.47;;;21.09
65738;BMP280;52478;51.844;6.582;2023-11-18T06:49:03;101943.09;;;21.09
65738;BMP280;52478;51.844;6.582;2023-11-18T06:51:31;101922.84;;;21.08
65738;BMP280;52478;51.844;6.582;2023-11-18T06:54:00;101938.81;;;21.08
65738;BMP280;52478;51.844;6.582;2023-11-18T06:56:30;101938.03;;;21.07
65738;BMP280;52478;51.844;6.582;2023-11-18T06:58:57;101944.38;;;21.08
65738;BMP280;52478;51.844;6.582;2023-11-18T07:01:23;101961.06;;;21.08
65738;BMP280;52478;51.844;6.582;2023-11-18T07:03:50;101960.31;;;21.07
65738;BMP280;52478;51.844;6.582;2023-11-18T07:06:18;101961.28;;;21.04
65738;BMP280;52478;51.844;6.582;2023-11-18T07:08:47;101962.31;;;21.07
65738;BMP280;52478;51.844;6.582;2023-11-18T07:11:14;101959.53;;;21.07
65738;BMP280;52478;51.844;6.582;2023-11-18T07:13:42;101953.94;;;21.07
65738;BMP280;52478;51.844;6.582;2023-11-18T07:16:09;101949.16;;;21.07
65738;BMP280;52478;51.844;6.582;2023-11-18T07:18:36;101947.63;;;21.06
65738;BMP280;52478;51.844;6.582;2023-11-18T07:21:04;101962.31;;;21.07
65738;BMP280;52478;51.844;6.582;2023-11-18T07:23:31;101965.09;;;21.07
65738;BMP280;52478;51.844;6.582;2023-11-18T07:25:57;101958.28;;;21.08
65738;BMP280;52478;51.844;6.582;2023-11-18T07:28:24;101959.78;;;21.09
65738;BMP280;52478;51.844;6.582;2023-11-18T07:30:52;101951.44;;;21.09
65738;BMP280;52478;51.844;6.582;2023-11-18T07:33:20;101943.09;;;21.09
65738;BMP280;52478;51.844;6.582;2023-11-18T07:35:47;101919.78;;;21.06
65738;BMP280;52478;51.844;6.582;2023-11-18T07:38:14;101915.22;;;21.03
65738;BMP280;52478;51.844;6.582;2023-11-18T07:40:41;101929.06;;;20.98
65738;BMP280;52478;51.844;6.582;2023-11-18T07:43:11;101928.59;;;20.99
65738;BMP280;52478;51.844;6.582;2023-11-18T07:45:37;101922.75;;;20.97
65738;BMP280;52478;51.844;6.582;2023-11-18T07:48:06;101926.78;;;20.96
65738;BMP280;52478;51.844;6.582;2023-11-18T07:50:33;101930.09;;;20.95
65738;BMP280;52478;51.844;6.582;2023-11-18T07:53:00;101935.34;;;20.93
65738;BMP280;52478;51.844;6.582;2023-11-18T07:55:27;101931.06;;;20.92
65738;BMP280;52478;51.844;6.582;2023-11-18T07:57:53;101938.13;;;20.93
65738;BMP280;52478;51.844;6.582;2023-11-18T08:00:20;101941.66;;;20.88
65738;BMP280;52478;51.844;6.582;2023-11-18T08:02:49;101948.97;;;20.85
65738;BMP280;52478;51.844;6.582;2023-11-18T08:05:18;101942.53;;;20.74
65738;BMP280;52478;51.844;6.582;2023-11-18T08:07:44;101953.44;;;20.72
65738;BMP280;52478;51.844;6.582;2023-11-18T08:10:11;101951.88;;;20.71
65738;BMP280;52478;51.844;6.582;2023-11-18T08:12:38;101944.34;;;20.77
65738;BMP280;52478;51.844;6.582;2023-11-18T08:15:06;101943.88;;;20.78
65738;BMP280;52478;51.844;6.582;2023-11-18T08:17:34;101932.22;;;20.80
65738;BMP280;52478;51.844;6.582;2023-11-18T08:20:01;101935.00;;;20.80
65738;BMP280;52478;51.844;6.582;2023-11-18T08:22:33;101926.66;;;20.80
65738;BMP280;52478;51.844;6.582;2023-11-18T08:25:00;101933.47;;;20.79
65738;BMP280;52478;51.844;6.582;2023-11-18T08:27:26;101918.81;;;20.78
65738;BMP280;52478;51.844;6.582;2023-11-18T08:29:53;101919.03;;;20.75
65738;BMP280;52478;51.844;6.582;2023-11-18T08:32:19;101910.13;;;20.71
65738;BMP280;52478;51.844;6.582;2023-11-18T08:34:50;101903.81;;;20.70
65738;BMP280;52478;51.844;6.582;2023-11-18T08:37:16;101909.13;;;20.68
65738;BMP280;52478;51.844;6.582;2023-11-18T08:39:44;101908.59;;;20.70
65738;BMP280;52478;51.844;6.582;2023-11-18T08:42:11;101902.50;;;20.66
65738;BMP280;52478;51.844;6.582;2023-11-18T08:44:40;101903.50;;;20.63
65738;BMP280;52478;51.844;6.582;2023-11-18T08:47:07;101901.97;;;20.62
65738;BMP280;52478;51.844;6.582;2023-11-18T08:49:34;101896.38;;;20.62
65738;BMP280;52478;51.844;6.582;2023-11-18T08:52:02;101894.88;;;20.61
65738;BMP280;52478;51.844;6.582;2023-11-18T08:54:35;101886.28;;;20.59
65738;BMP280;52478;51.844;6.582;2023-11-18T08:57:05;101895.38;;;20.59
65738;BMP280;52478;51.844;6.582;2023-11-18T08:59:49;101887.81;;;20.60
65738;BMP280;52478;51.844;6.582;2023-11-18T09:02:17;101879.22;;;20.63
65738;BMP280;52478;51.844;6.582;2023-11-18T09:04:48;101870.13;;;20.63
65738;BMP280;52478;51.844;6.582;2023-11-18T09:07:15;101869.81;;;20.61
65738;BMP280;52478;51.844;6.582;2023-11-18T09:09:41;101861.97;;;20.59
65738;BMP280;52478;51.844;6.582;2023-11-18T09:12:11;101855.91;;;20.61
65738;BMP280;52478;51.844;6.582;2023-11-18T09:14:40;101866.09;;;20.64
65738;BMP280;52478;51.844;6.582;2023-11-18T09:17:08;101856.44;;;20.65
65738;BMP280;52478;51.844;6.582;2023-11-18T09:19:34;101856.44;;;20.65
65738;BMP280;52478;51.844;6.582;2023-11-18T09:22:01;101856.75;;;20.67
65738;BMP280;52478;51.844;6.582;2023-11-18T09:24:30;101859.53;;;20.67
65738;BMP280;52478;51.844;6.582;2023-11-18T09:26:58;101864.88;;;20.70
65738;BMP280;52478;51.844;6.582;2023-11-18T09:29:26;101858.81;;;20.72
65738;BMP280;52478;51.844;6.582;2023-11-18T09:31:53;101852.97;;;20.70
65738;BMP280;52478;51.844;6.582;2023-11-18T09:34:19;101866.63;;;20.68
65738;BMP280;52478;51.844;6.582;2023-11-18T09:36:53;101853.97;;;20.67
65738;BMP280;52478;51.844;6.582;2023-11-18T09:39:20;101847.88;;;20.63
65738;BMP280;52478;51.844;6.582;2023-11-18T09:42:04;101850.88;;;20.65
65738;BMP280;52478;51.844;6.582;2023-11-18T09:44:36;101845.31;;;20.65
65738;BMP280;52478;51.844;6.582;2023-11-18T09:47:07;101840.53;;;20.65
65738;BMP280;52478;51.844;6.582;2023-11-18T09:49:40;101831.16;;;20.63
65738;BMP280;52478;51.844;6.582;2023-11-18T09:52:07;101834.69;;;20.63
65738;BMP280;52478;51.844;6.582;2023-11-18T09:54:39;101832.41;;;20.62
65738;BMP280;52478;51.844;6.582;2023-11-18T09:57:08;101824.28;;;20.58
65738;BMP280;52478;51.844;6.582;2023-11-18T09:59:42;101831.41;;;20.65
65738;BMP280;52478;51.844;6.582;2023-11-18T10:02:12;101821.56;;;20.64
65738;BMP280;52478;51.844;6.582;2023-11-18T10:04:39;101808.91;;;20.63
65738;BMP280;52478;51.844;6.582;2023-11-18T10:07:06;101802.56;;;20.62
65738;BMP280;52478;51.844;6.582;2023-11-18T10:09:35;101801.03;;;20.61
65738;BMP280;52478;51.844;6.582;2023-11-18T10:12:05;101801.28;;;20.58
65738;BMP280;52478;51.844;6.582;2023-11-18T10:14:33;101792.94;;;20.58
65738;BMP280;52478;51.844;6.582;2023-11-18T10:17:04;101786.66;;;20.63
65738;BMP280;52478;51.844;6.582;2023-11-18T10:19:49;101787.19;;;20.67
65738;BMP280;52478;51.844;6.582;2023-11-18T10:22:21;101788.22;;;20.69
65738;BMP280;52478;51.844;6.582;2023-11-18T10:24:48;101782.13;;;20.71
65738;BMP280;52478;51.844;6.582;2023-11-18T10:27:18;101779.63;;;20.73
65738;BMP280;52478;51.844;6.582;2023-11-18T10:29:45;101770.78;;;20.74
65738;BMP280;52478;51.844;6.582;2023-11-18T10:32:13;101765.97;;;20.75
65738;BMP280;52478;51.844;6.582;2023-11-18T10:34:45;101748.78;;;20.76
65738;BMP280;52478;51.844;6.582;2023-11-18T10:37:11;101741.19;;;20.77
65738;BMP280;52478;51.844;6.582;2023-11-18T10:39:37;101738.69;;;20.79
65738;BMP280;52478;51.844;6.582;2023-11-18T10:42:04;101722.75;;;20.79
65738;BMP280;52478;51.844;6.582;2023-11-18T10:44:31;101708.31;;;20.81
65738;BMP280;52478;51.844;6.582;2023-11-18T10:46:58;101711.13;;;20.81
65738;BMP280;52478;51.844;6.582;2023-11-18T10:49:26;101712.63;;;20.82
65738;BMP280;52478;51.844;6.582;2023-11-18T10:51:53;101712.16;;;20.83
65738;BMP280;52478;51.844;6.582;2023-11-18T10:54:20;101700.25;;;20.83
65738;BMP280;52478;51.844;6.582;2023-11-18T10:56:47;101719.97;;;20.85
65738;BMP280;52478;51.844;6.582;2023-11-18T10:59:14;101719.97;;;20.85
65738;BMP280;52478;51.844;6.582;2023-11-18T11:01:42;101711.59;;;20.85
65738;BMP280;52478;51.844;6.582;2023-11-18T11:04:09;101710.38;;;20.86
65738;BMP280;52478;51.844;6.582;2023-11-18T11:06:41;101723.03;;;20.87
65738;BMP280;52478;51.844;6.582;2023-11-18T11:09:07;101723.81;;;20.87
65738;BMP280;52478;51.844;6.582;2023-11-18T11:11:46;101713.44;;;20.88
65738;BMP280;52478;51.844;6.582;2023-11-18T11:14:14;101718.25;;;20.87
65738;BMP280;52478;51.844;6.582;2023-11-18T11:16:45;101719.00;;;20.88
65738;BMP280;52478;51.844;6.582;2023-11-18T11:19:20;101726.06;;;20.89
65738;BMP280;52478;51.844;6.582;2023-11-18T11:22:00;101712.13;;;20.89
65738;BMP280;52478;51.844;6.582;2023-11-18T11:24:37;101709.34;;;20.89
65738;BMP280;52478;51.844;6.582;2023-11-18T11:27:12;101708.13;;;20.90
65738;BMP280;52478;51.844;6.582;2023-11-18T11:29:49;101711.66;;;20.90
65738;BMP280;52478;51.844;6.582;2023-11-18T11:32:25;101695.72;;;20.91
65738;BMP280;52478;51.844;6.582;2023-11-18T11:34:57;101701.28;;;20.91
65738;BMP280;52478;51.844;6.582;2023-11-18T11:37:32;101700.03;;;20.92
65738;BMP280;52478;51.844;6.582;2023-11-18T11:40:00;101697.25;;;20.92
65738;BMP280;52478;51.844;6.582;2023-11-18T11:42:31;101692.94;;;20.91
65738;BMP280;52478;51.844;6.582;2023-11-18T11:44:58;101694.47;;;20.92
65738;BMP280;52478;51.844;6.582;2023-11-18T11:47:25;101697.25;;;20.92
65738;BMP280;52478;51.844;6.582;2023-11-18T11:49:57;101693.19;;;20.93
65738;BMP280;52478;51.844;6.582;2023-11-18T11:52:30;101682.03;;;20.93
65738;BMP280;52478;51.844;6.582;2023-11-18T11:55:02;101676.47;;;20.93
65738;BMP280;52478;51.844;6.582;2023-11-18T11:57:32;101670.91;;;20.93
65738;BMP280;52478;51.844;6.582;2023-11-18T12:00:02;101654.22;;;20.93
65738;BMP280;52478;51.844;6.582;2023-11-18T12:02:47;101644.59;;;20.94
65738;BMP280;52478;51.844;6.582;2023-11-18T12:05:15;101639.31;;;20.96
65738;BMP280;52478;51.844;6.582;2023-11-18T12:07:44;101632.47;;;20.97
65738;BMP280;52478;51.844;6.582;2023-11-18T12:10:13;101617.06;;;20.96
65738;BMP280;52478;51.844;6.582;2023-11-18T12:12:46;101615.75;;;20.97
65738;BMP280;52478;51.844;6.582;2023-11-18T12:15:12;101593.50;;;20.97
65738;BMP280;52478;51.844;6.582;2023-11-18T12:18:10;101573.28;;;20.96
65738;BMP280;52478;51.844;6.582;2023-11-18T12:20:44;101565.66;;;20.97
65738;BMP280;52478;51.844;6.582;2023-11-18T12:23:13;101569.75;;;20.96
65738;BMP280;52478;51.844;6.582;2023-11-18T12:25:42;101566.66;;;20.94
65738;BMP280;52478;51.844;6.582;2023-11-18T12:28:11;101569.75;;;20.96
65738;BMP280;52478;51.844;6.582;2023-11-18T12:30:44;101568.44;;;20.97
65738;BMP280;52478;51.844;6.582;2023-11-18T12:33:19;101568.44;;;20.97
65738;BMP280;52478;51.844;6.582;2023-11-18T12:39:02;101564.91;;;20.96
65738;BMP280;52478;51.844;6.582;2023-11-18T12:41:40;101553.03;;;20.96
65738;BMP280;52478;51.844;6.582;2023-11-18T12:44:27;101530.78;;;20.96
65738;BMP280;52478;51.844;6.582;2023-11-18T12:46:59;101533.78;;;20.98
65738;BMP280;52478;51.844;6.582;2023-11-18T12:49:38;101522.41;;;20.96
65738;BMP280;52478;51.844;6.582;2023-11-18T12:52:07;101521.13;;;20.97
65738;BMP280;52478;51.844;6.582;2023-11-18T12:54:35;101515.84;;;20.99
65738;BMP280;52478;51.844;6.582;2023-11-18T12:57:04;101496.06;;;20.97
65738;BMP280;52478;51.844;6.582;2023-11-18T12:59:32;101485.22;;;20.99
65738;BMP280;52478;51.844;6.582;2023-11-18T13:01:58;101475.59;;;21.00
65738;BMP280;52478;51.844;6.582;2023-11-18T13:04:30;101478.09;;;20.98
65738;BMP280;52478;51.844;6.582;2023-11-18T13:06:57;101466.97;;;20.98
65738;BMP280;52478;51.844;6.582;2023-11-18T13:09:25;101461.69;;;21.00
65738;BMP280;52478;51.844;6.582;2023-11-18T13:11:56;101434.34;;;20.98
65738;BMP280;52478;51.844;6.582;2023-11-18T13:14:26;101435.13;;;20.99
65738;BMP280;52478;51.844;6.582;2023-11-18T13:16:53;101429.56;;;20.99
65738;BMP280;52478;51.844;6.582;2023-11-18T13:19:26;101418.41;;;20.99
65738;BMP280;52478;51.844;6.582;2023-11-18T13:21:56;101403.25;;;21.00
65738;BMP280;52478;51.844;6.582;2023-11-18T13:24:24;101406.03;;;21.00
65738;BMP280;52478;51.844;6.582;2023-11-18T13:26:54;101402.47;;;20.99
65738;BMP280;52478;51.844;6.582;2023-11-18T13:29:21;101396.16;;;20.99
65738;BMP280;52478;51.844;6.582;2023-11-18T13:31:50;101385.03;;;20.99
65738;BMP280;52478;51.844;6.582;2023-11-18T13:34:17;101369.84;;;21.00
65738;BMP280;52478;51.844;6.582;2023-11-18T13:36:44;101358.69;;;21.00
65738;BMP280;52478;51.844;6.582;2023-11-18T13:39:15;101360.72;;;20.99
65738;BMP280;52478;51.844;6.582;2023-11-18T13:41:42;101365.75;;;21.01
65738;BMP280;52478;51.844;6.582;2023-11-18T13:44:10;101353.13;;;21.00
65738;BMP280;52478;51.844;6.582;2023-11-18T13:46:38;101348.31;;;21.00
65738;BMP280;52478;51.844;6.582;2023-11-18T13:49:07;101342.00;;;21.00
65738;BMP280;52478;51.844;6.582;2023-11-18T13:51:33;101336.44;;;21.00
65738;BMP280;52478;51.844;6.582;2023-11-18T13:54:01;101332.34;;;21.01
65738;BMP280;52478;51.844;6.582;2023-11-18T13:56:29;101337.19;;;21.00
65738;BMP280;52478;51.844;6.582;2023-11-18T13:58:55;101343.50;;;21.01
65738;BMP280;52478;51.844;6.582;2023-11-18T14:01:22;101330.09;;;20.99
65738;BMP280;52478;51.844;6.582;2023-11-18T14:03:49;101323.78;;;20.99
65738;BMP280;52478;51.844;6.582;2023-11-18T14:06:17;101336.44;;;21.00